sensor_id;sensor_type;location;lat;lon;timestamp;pressure;altitude;pressure_sealevel;temperature;humidity
11712;BME280;5912;51.034;6.984;2023-06-22T00:01:56;56039.84;;;-142.13;45.75
11712;BME280;5912;51.034;6.984;2023-06-22T00:04:21;56025.81;;;-142.13;45.41
11712;BME280;5912;51.034;6.984;2023-06-22T00:06:46;56051.84;;;-142.13;45.73
11712;BME280;5912;51.034;6.984;2023-06-22T00:09:11;56035.81;;;-142.13;45.91
11712;BME280;5912;51.034;6.984;2023-06-22T00:11:37;56047.84;;;-142.13;46.05
11712;BME280;5912;51.034;6.984;2023-06-22T00:14:03;56047.84;;;-142.13;46.13
11712;BME280;5912;51.034;6.984;2023-06-22T00:16:30;56037.84;;;-142.13;46.08
11712;BME280;5912;51.034;6.984;2023-06-22T00:18:55;56035.81;;;-142.13;46.41
11712;BME280;5912;51.034;6.984;2023-06-22T00:21:20;56047.84;;;-142.13;46.80
11712;BME280;5912;51.034;6.984;2023-06-22T00:23:46;56047.84;;;-142.13;46.46
11712;BME280;5912;51.034;6.984;2023-06-22T00:26:12;56055.84;;;-142.13;46.32
11712;BME280;5912;51.034;6.984;2023-06-22T00:28:38;56031.81;;;-142.13;46.63
11712;BME280;5912;51.034;6.984;2023-06-22T00:31:03;56037.84;;;-142.13;46.70
11712;BME280;5912;51.034;6.984;2023-06-22T00:33:29;56059.88;;;-142.13;46.75
11712;BME280;5912;51.034;6.984;2023-06-22T00:35:54;56047.84;;;-142.13;46.80
11712;BME280;5912;51.034;6.984;2023-06-22T00:38:20;56047.84;;;-142.13;47.23
11712;BME280;5912;51.034;6.984;2023-06-22T00:40:45;56035.81;;;-142.13;46.90
11712;BME280;5912;51.034;6.984;2023-06-22T00:43:11;56043.84;;;-142.13;46.27
11712;BME280;5912;51.034;6.984;2023-06-22T00:45:36;56061.88;;;-142.13;46.15
11712;BME280;5912;51.034;6.984;2023-06-22T00:48:02;56031.81;;;-142.13;46.60
11712;BME280;5912;51.034;6.984;2023-06-22T00:50:32;56057.88;;;-142.13;46.30
11712;BME280;5912;51.034;6.984;2023-06-22T00:53:08;56055.84;;;-142.13;46.10
11712;BME280;5912;51.034;6.984;2023-06-22T00:55:40;56055.84;;;-142.13;46.07
11712;BME280;5912;51.034;6.984;2023-06-22T00:58:08;56053.84;;;-142.13;46.56
11712;BME280;5912;51.034;6.984;2023-06-22T01:00:39;56043.84;;;-142.13;46.99
11712;BME280;5912;51.034;6.984;2023-06-22T01:03:05;56051.84;;;-142.13;46.99
11712;BME280;5912;51.034;6.984;2023-06-22T01:05:34;56047.84;;;-142.13;47.61
11712;BME280;5912;51.034;6.984;2023-06-22T01:10:44;56055.84;;;-142.13;47.64
11712;BME280;5912;51.034;6.984;2023-06-22T01:13:26;56055.84;;;-142.13;47.95
11712;BME280;5912;51.034;6.984;2023-06-22T01:16:01;56017.81;;;-142.13;48.14
11712;BME280;5912;51.034;6.984;2023-06-22T01:18:29;56059.88;;;-142.13;48.26
11712;BME280;5912;51.034;6.984;2023-06-22T01:20:56;56049.84;;;-142.13;48.00
11712;BME280;5912;51.034;6.984;2023-06-22T01:26:14;56075.88;;;-142.13;48.24
11712;BME280;5912;51.034;6.984;2023-06-22T01:28:46;56071.88;;;-142.13;48.07
11712;BME280;5912;51.034;6.984;2023-06-22T01:31:15;56067.88;;;-142.13;47.97
11712;BME280;5912;51.034;6.984;2023-06-22T01:33:43;56079.91;;;-142.13;47.61
11712;BME280;5912;51.034;6.984;2023-06-22T01:36:09;56073.88;;;-142.13;47.04
11712;BME280;5912;51.034;6.984;2023-06-22T01:38:35;56063.88;;;-142.13;47.24
11712;BME280;5912;51.034;6.984;2023-06-22T01:41:02;56196.06;;;-142.13;47.42
11712;BME280;5912;51.034;6.984;2023-06-22T01:43:29;56059.88;;;-142.13;47.42
11712;BME280;5912;51.034;6.984;2023-06-22T01:45:56;56061.88;;;-142.13;47.22
11712;BME280;5912;51.034;6.984;2023-06-22T01:48:22;56071.88;;;-142.13;47.21
11712;BME280;5912;51.034;6.984;2023-06-22T01:50:48;56061.88;;;-142.13;47.20
11712;BME280;5912;51.034;6.984;2023-06-22T01:53:14;56065.88;;;-142.13;47.37
11712;BME280;5912;51.034;6.984;2023-06-22T01:55:40;56051.84;;;-142.13;47.46
11712;BME280;5912;51.034;6.984;2023-06-22T01:58:05;56079.91;;;-142.13;47.80
11712;BME280;5912;51.034;6.984;2023-06-22T02:00:37;56045.84;;;-142.13;47.66
11712;BME280;5912;51.034;6.984;2023-06-22T02:03:08;56055.84;;;-142.13;47.48
11712;BME280;5912;51.034;6.984;2023-06-22T02:05:38;56083.91;;;-142.13;47.43
11712;BME280;5912;51.034;6.984;2023-06-22T02:08:10;56220.13;;;-142.13;47.71
11712;BME280;5912;51.034;6.984;2023-06-22T02:10:38;56069.88;;;-142.13;47.79
11712;BME280;5912;51.034;6.984;2023-06-22T02:13:07;56067.88;;;-142.13;48.22
11712;BME280;5912;51.034;6.984;2023-06-22T02:15:33;56079.91;;;-142.13;48.24
11712;BME280;5912;51.034;6.984;2023-06-22T02:18:01;56067.88;;;-142.13;48.69
11712;BME280;5912;51.034;6.984;2023-06-22T02:20:27;56083.91;;;-142.13;48.82
11712;BME280;5912;51.034;6.984;2023-06-22T02:22:52;56093.91;;;-142.13;49.29
11712;BME280;5912;51.034;6.984;2023-06-22T02:25:17;56067.88;;;-142.13;49.37
11712;BME280;5912;51.034;6.984;2023-06-22T02:27:44;56087.91;;;-142.13;49.44
11712;BME280;5912;51.034;6.984;2023-06-22T02:30:12;56087.91;;;-142.13;49.32
11712;BME280;5912;51.034;6.984;2023-06-22T02:32:37;56131.97;;;-142.13;49.30
11712;BME280;5912;51.034;6.984;2023-06-22T02:35:10;56069.88;;;-142.13;49.41
11712;BME280;5912;51.034;6.984;2023-06-22T02:37:36;56067.88;;;-142.13;49.50
11712;BME280;5912;51.034;6.984;2023-06-22T02:40:05;56057.88;;;-142.13;49.19
11712;BME280;5912;51.034;6.984;2023-06-22T02:42:32;56079.91;;;-142.13;49.06
11712;BME280;5912;51.034;6.984;2023-06-22T02:44:57;56097.94;;;-142.13;49.10
11712;BME280;5912;51.034;6.984;2023-06-22T02:47:23;56117.97;;;-142.13;49.37
11712;BME280;5912;51.034;6.984;2023-06-22T02:49:48;56075.88;;;-142.13;49.33
11712;BME280;5912;51.034;6.984;2023-06-22T02:52:13;56059.88;;;-142.13;49.69
11712;BME280;5912;51.034;6.984;2023-06-22T02:54:39;56101.94;;;-142.13;49.68
11712;BME280;5912;51.034;6.984;2023-06-22T02:57:04;56069.88;;;-142.13;49.67
11712;BME280;5912;51.034;6.984;2023-06-22T02:59:30;56063.88;;;-142.13;49.86
11712;BME280;5912;51.034;6.984;2023-06-22T03:01:55;56087.91;;;-142.13;49.66
11712;BME280;5912;51.034;6.984;2023-06-22T03:04:20;56103.94;;;-142.13;49.79
11712;BME280;5912;51.034;6.984;2023-06-22T03:06:46;56095.91;;;-142.13;50.16
11712;BME280;5912;51.034;6.984;2023-06-22T03:09:16;56099.94;;;-142.13;50.09
11712;BME280;5912;51.034;6.984;2023-06-22T03:11:42;56079.91;;;-142.13;49.97
11712;BME280;5912;51.034;6.984;2023-06-22T03:14:07;56115.94;;;-142.13;49.91
11712;BME280;5912;51.034;6.984;2023-06-22T03:16:32;56099.94;;;-142.13;50.13
11712;BME280;5912;51.034;6.984;2023-06-22T03:18:58;56095.91;;;-142.13;50.53
11712;BME280;5912;51.034;6.984;2023-06-22T03:21:28;56079.91;;;-142.13;50.51
11712;BME280;5912;51.034;6.984;2023-06-22T03:23:54;56113.94;;;-142.13;50.67
11712;BME280;5912;51.034;6.984;2023-06-22T03:26:20;56099.94;;;-142.13;50.82
11712;BME280;5912;51.034;6.984;2023-06-22T03:28:46;56127.97;;;-142.13;50.94
11712;BME280;5912;51.034;6.984;2023-06-22T03:31:11;56121.97;;;-142.13;51.34
11712;BME280;5912;51.034;6.984;2023-06-22T03:33:37;56103.94;;;-142.13;51.38
11712;BME280;5912;51.034;6.984;2023-06-22T03:36:02;56113.94;;;-142.13;51.37
11712;BME280;5912;51.034;6.984;2023-06-22T03:38:28;56107.94;;;-142.13;51.25
11712;BME280;5912;51.034;6.984;2023-06-22T03:40:53;56083.91;;;-142.13;50.81
11712;BME280;5912;51.034;6.984;2023-06-22T03:43:18;56115.94;;;-142.13;50.22
11712;BME280;5912;51.034;6.984;2023-06-22T03:45:44;56103.94;;;-142.13;49.98
11712;BME280;5912;51.034;6.984;2023-06-22T03:48:11;56067.88;;;-142.13;49.10
11712;BME280;5912;51.034;6.984;2023-06-22T03:50:36;56105.94;;;-142.13;48.57
11712;BME280;5912;51.034;6.984;2023-06-22T03:53:02;56079.91;;;-142.13;48.23
11712;BME280;5912;51.034;6.984;2023-06-22T03:55:27;56073.88;;;-142.13;48.21
11712;BME280;5912;51.034;6.984;2023-06-22T03:57:53;56071.88;;;-142.13;47.62
11712;BME280;5912;51.034;6.984;2023-06-22T04:00:24;56061.88;;;-142.13;47.06
11712;BME280;5912;51.034;6.984;2023-06-22T04:02:50;56071.88;;;-142.13;47.23
11712;BME280;5912;51.034;6.984;2023-06-22T04:05:15;56079.91;;;-142.13;47.02
11712;BME280;5912;51.034;6.984;2023-06-22T04:07:42;56087.91;;;-142.13;46.78
11712;BME280;5912;51.034;6.984;2023-06-22T04:10:08;56075.88;;;-142.13;46.96
11712;BME280;5912;51.034;6.984;2023-06-22T04:12:33;56067.88;;;-142.13;46.93
11712;BME280;5912;51.034;6.984;2023-06-22T04:14:59;56079.91;;;-142.13;47.03
11712;BME280;5912;51.034;6.984;2023-06-22T04:17:24;56055.84;;;-142.13;47.08
11712;BME280;5912;51.034;6.984;2023-06-22T04:19:50;56067.88;;;-142.13;46.92
11712;BME280;5912;51.034;6.984;2023-06-22T04:22:19;56059.88;;;-142.13;46.64
11712;BME280;5912;51.034;6.984;2023-06-22T04:24:44;56043.84;;;-142.13;46.95
11712;BME280;5912;51.034;6.984;2023-06-22T04:27:10;56069.88;;;-142.13;46.81
11712;BME280;5912;51.034;6.984;2023-06-22T04:29:35;56067.88;;;-142.13;46.62
11712;BME280;5912;51.034;6.984;2023-06-22T04:32:01;56071.88;;;-142.13;46.51
11712;BME280;5912;51.034;6.984;2023-06-22T04:34:30;56057.88;;;-142.13;46.73
11712;BME280;5912;51.034;6.984;2023-06-22T04:36:56;56057.88;;;-142.13;46.45
11712;BME280;5912;51.034;6.984;2023-06-22T04:39:22;56045.84;;;-142.13;47.06
11712;BME280;5912;51.034;6.984;2023-06-22T04:41:48;56027.81;;;-142.13;47.03
11712;BME280;5912;51.034;6.984;2023-06-22T04:44:15;56055.84;;;-142.13;46.84
11712;BME280;5912;51.034;6.984;2023-06-22T04:46:55;56029.81;;;-142.13;46.56
11712;BME280;5912;51.034;6.984;2023-06-22T04:49:26;56051.84;;;-142.13;46.94
11712;BME280;5912;51.034;6.984;2023-06-22T04:51:58;56049.84;;;-142.13;46.62
11712;BME280;5912;51.034;6.984;2023-06-22T04:54:26;56039.84;;;-142.13;46.49
11712;BME280;5912;51.034;6.984;2023-06-22T04:56:54;56013.78;;;-142.13;46.46
11712;BME280;5912;51.034;6.984;2023-06-22T04:59:23;56015.81;;;-142.13;46.66
11712;BME280;5912;51.034;6.984;2023-06-22T05:02:02;56041.84;;;-142.13;46.58
11712;BME280;5912;51.034;6.984;2023-06-22T05:04:29;56043.84;;;-142.13;46.69
11712;BME280;5912;51.034;6.984;2023-06-22T05:06:59;56035.81;;;-142.13;47.11
11712;BME280;5912;51.034;6.984;2023-06-22T05:09:25;56045.84;;;-142.13;47.42
11712;BME280;5912;51.034;6.984;2023-06-22T05:11:51;56021.81;;;-142.13;47.49
11712;BME280;5912;51.034;6.984;2023-06-22T05:14:16;56035.81;;;-142.13;46.94
11712;BME280;5912;51.034;6.984;2023-06-22T05:16:42;56019.81;;;-142.13;46.88
11712;BME280;5912;51.034;6.984;2023-06-22T05:19:08;56023.81;;;-142.13;46.24
11712;BME280;5912;51.034;6.984;2023-06-22T05:21:33;56027.81;;;-142.13;46.45
11712;BME280;5912;51.034;6.984;2023-06-22T05:23:59;56055.84;;;-142.13;46.37
11712;BME280;5912;51.034;6.984;2023-06-22T05:26:26;56045.84;;;-142.13;46.25
11712;BME280;5912;51.034;6.984;2023-06-22T05:28:51;56021.81;;;-142.13;46.51
11712;BME280;5912;51.034;6.984;2023-06-22T05:31:17;56051.84;;;-142.13;46.61
11712;BME280;5912;51.034;6.984;2023-06-22T05:33:45;56021.81;;;-142.13;47.19
11712;BME280;5912;51.034;6.984;2023-06-22T05:36:11;56039.84;;;-142.13;47.49
11712;BME280;5912;51.034;6.984;2023-06-22T05:38:37;56053.84;;;-142.13;48.02
11712;BME280;5912;51.034;6.984;2023-06-22T05:41:03;56057.88;;;-142.13;48.68
11712;BME280;5912;51.034;6.984;2023-06-22T05:43:28;56031.81;;;-142.13;48.65
11712;BME280;5912;51.034;6.984;2023-06-22T05:45:54;56045.84;;;-142.13;48.00
11712;BME280;5912;51.034;6.984;2023-06-22T05:48:19;56031.81;;;-142.13;47.87
11712;BME280;5912;51.034;6.984;2023-06-22T05:50:44;56031.81;;;-142.13;48.30
11712;BME280;5912;51.034;6.984;2023-06-22T05:53:10;56059.88;;;-142.13;48.02
11712;BME280;5912;51.034;6.984;2023-06-22T05:55:35;56027.81;;;-142.13;47.75
11712;BME280;5912;51.034;6.984;2023-06-22T05:58:00;56021.81;;;-142.13;47.26
11712;BME280;5912;51.034;6.984;2023-06-22T06:00:26;56019.81;;;-142.13;47.41
11712;BME280;5912;51.034;6.984;2023-06-22T06:02:51;56027.81;;;-142.13;46.80
11712;BME280;5912;51.034;6.984;2023-06-22T06:05:16;56011.78;;;-142.13;46.69
11712;BME280;5912;51.034;6.984;2023-06-22T06:07:43;56023.81;;;-142.13;46.37
11712;BME280;5912;51.034;6.984;2023-06-22T06:10:09;55983.75;;;-142.13;46.41
11712;BME280;5912;51.034;6.984;2023-06-22T06:12:34;56003.78;;;-142.13;47.20
11712;BME280;5912;51.034;6.984;2023-06-22T06:15:01;55987.75;;;-142.13;47.37
11712;BME280;5912;51.034;6.984;2023-06-22T06:17:26;55979.75;;;-142.13;47.49
11712;BME280;5912;51.034;6.984;2023-06-22T06:19:51;55959.72;;;-142.13;47.23
11712;BME280;5912;51.034;6.984;2023-06-22T06:22:17;55973.75;;;-142.13;46.65
11712;BME280;5912;51.034;6.984;2023-06-22T06:24:44;55933.69;;;-142.13;46.23
11712;BME280;5912;51.034;6.984;2023-06-22T06:27:09;55947.69;;;-142.13;45.77
11712;BME280;5912;51.034;6.984;2023-06-22T06:29:34;55917.66;;;-142.13;45.23
11712;BME280;5912;51.034;6.984;2023-06-22T06:32:00;55923.66;;;-142.13;44.22
11712;BME280;5912;51.034;6.984;2023-06-22T06:34:25;55911.66;;;-142.13;43.73
11712;BME280;5912;51.034;6.984;2023-06-22T06:36:50;55919.66;;;-142.13;43.20
11712;BME280;5912;51.034;6.984;2023-06-22T06:39:16;55893.63;;;-142.13;43.17
11712;BME280;5912;51.034;6.984;2023-06-22T06:41:41;55879.59;;;-142.13;42.91
11712;BME280;5912;51.034;6.984;2023-06-22T06:44:07;55899.63;;;-142.13;42.59
11712;BME280;5912;51.034;6.984;2023-06-22T06:46:32;55859.56;;;-142.13;42.62
11712;BME280;5912;51.034;6.984;2023-06-22T06:48:57;55899.63;;;-142.13;42.29
11712;BME280;5912;51.034;6.984;2023-06-22T06:51:22;55911.66;;;-142.13;42.53
11712;BME280;5912;51.034;6.984;2023-06-22T06:53:48;55891.63;;;-142.13;42.72
11712;BME280;5912;51.034;6.984;2023-06-22T06:56:13;55875.59;;;-142.13;42.83
11712;BME280;5912;51.034;6.984;2023-06-22T06:58:41;55859.56;;;-142.13;41.53
11712;BME280;5912;51.034;6.984;2023-06-22T07:01:07;55847.56;;;-142.13;40.05
11712;BME280;5912;51.034;6.984;2023-06-22T07:03:33;55803.47;;;-142.13;38.89
11712;BME280;5912;51.034;6.984;2023-06-22T07:05:58;55767.44;;;-142.13;38.54
11712;BME280;5912;51.034;6.984;2023-06-22T07:08:24;55797.47;;;-142.13;37.74
11712;BME280;5912;51.034;6.984;2023-06-22T07:10:49;55765.44;;;-142.13;37.79
11712;BME280;5912;51.034;6.984;2023-06-22T07:13:14;55755.41;;;-142.13;37.68
11712;BME280;5912;51.034;6.984;2023-06-22T07:15:40;55767.44;;;-142.13;37.18
11712;BME280;5912;51.034;6.984;2023-06-22T07:18:05;55763.44;;;-142.13;37.33
11712;BME280;5912;51.034;6.984;2023-06-22T07:20:31;55763.44;;;-142.13;37.27
11712;BME280;5912;51.034;6.984;2023-06-22T07:22:56;55799.47;;;-142.13;37.27
11712;BME280;5912;51.034;6.984;2023-06-22T07:25:21;55779.44;;;-142.13;38.08
11712;BME280;5912;51.034;6.984;2023-06-22T07:27:58;55769.44;;;-142.13;38.10
11712;BME280;5912;51.034;6.984;2023-06-22T07:30:24;55715.34;;;-142.13;37.04
11712;BME280;5912;51.034;6.984;2023-06-22T07:32:49;55675.31;;;-142.13;34.91
11712;BME280;5912;51.034;6.984;2023-06-22T07:35:15;55651.25;;;-142.13;32.77
11712;BME280;5912;51.034;6.984;2023-06-22T07:37:41;55647.25;;;-142.13;32.80
11712;BME280;5912;51.034;6.984;2023-06-22T07:40:07;55673.28;;;-142.13;32.94
11712;BME280;5912;51.034;6.984;2023-06-22T07:42:33;55679.31;;;-142.13;33.02
11712;BME280;5912;51.034;6.984;2023-06-22T07:44:58;55685.31;;;-142.13;33.82
11712;BME280;5912;51.034;6.984;2023-06-22T07:47:24;55691.31;;;-142.13;33.24
11712;BME280;5912;51.034;6.984;2023-06-22T07:49:51;55655.28;;;-142.13;33.05
11712;BME280;5912;51.034;6.984;2023-06-22T07:52:17;55621.22;;;-142.13;31.98
11712;BME280;5912;51.034;6.984;2023-06-22T07:54:42;55631.25;;;-142.13;31.70
11712;BME280;5912;51.034;6.984;2023-06-22T07:57:07;55663.28;;;-142.13;32.17
11712;BME280;5912;51.034;6.984;2023-06-22T07:59:33;55671.28;;;-142.13;32.74
11712;BME280;5912;51.034;6.984;2023-06-22T08:01:58;55649.25;;;-142.13;32.56
11712;BME280;5912;51.034;6.984;2023-06-22T08:04:23;55617.22;;;-142.13;31.86
11712;BME280;5912;51.034;6.984;2023-06-22T08:06:49;55593.19;;;-142.13;30.68
11712;BME280;5912;51.034;6.984;2023-06-22T08:09:14;55575.16;;;-142.13;29.67
11712;BME280;5912;51.034;6.984;2023-06-22T08:11:40;55587.19;;;-142.13;29.63
11712;BME280;5912;51.034;6.984;2023-06-22T08:14:05;55539.09;;;-142.13;28.90
11712;BME280;5912;51.034;6.984;2023-06-22T08:16:30;55533.09;;;-142.13;28.53
11712;BME280;5912;51.034;6.984;2023-06-22T08:18:56;55529.09;;;-142.13;28.45
11712;BME280;5912;51.034;6.984;2023-06-22T08:21:21;55523.09;;;-142.13;28.33
11712;BME280;5912;51.034;6.984;2023-06-22T08:23:47;55489.03;;;-142.13;27.75
11712;BME280;5912;51.034;6.984;2023-06-22T08:26:14;55509.06;;;-142.13;27.36
11712;BME280;5912;51.034;6.984;2023-06-22T08:28:39;55483.03;;;-142.13;26.90
11712;BME280;5912;51.034;6.984;2023-06-22T08:31:04;55457.00;;;-142.13;27.24
11712;BME280;5912;51.034;6.984;2023-06-22T08:33:30;55471.00;;;-142.13;25.84
11712;BME280;5912;51.034;6.984;2023-06-22T08:35:57;55428.97;;;-142.13;26.18
11712;BME280;5912;51.034;6.984;2023-06-22T08:38:23;55455.00;;;-142.13;26.42
11712;BME280;5912;51.034;6.984;2023-06-22T08:40:48;55438.97;;;-142.13;26.52
11712;BME280;5912;51.034;6.984;2023-06-22T08:43:14;55448.97;;;-142.13;26.00
11712;BME280;5912;51.034;6.984;2023-06-22T08:45:39;55418.94;;;-142.13;26.23
11712;BME280;5912;51.034;6.984;2023-06-22T08:48:05;55430.97;;;-142.13;26.08
11712;BME280;5912;51.034;6.984;2023-06-22T08:50:30;55453.00;;;-142.13;26.40
11712;BME280;5912;51.034;6.984;2023-06-22T08:52:55;55459.00;;;-142.13;26.60
11712;BME280;5912;51.034;6.984;2023-06-22T08:55:21;55455.00;;;-142.13;26.80
11712;BME280;5912;51.034;6.984;2023-06-22T08:57:46;55432.97;;;-142.13;27.43
11712;BME280;5912;51.034;6.984;2023-06-22T09:00:12;55446.97;;;-142.13;26.87
11712;BME280;5912;51.034;6.984;2023-06-22T09:02:42;55463.00;;;-142.13;27.51
11712;BME280;5912;51.034;6.984;2023-06-22T09:05:08;55513.06;;;-142.13;28.00
11712;BME280;5912;51.034;6.984;2023-06-22T09:07:33;55515.06;;;-142.13;28.77
11712;BME280;5912;51.034;6.984;2023-06-22T09:09:59;55543.13;;;-142.13;28.91
11712;BME280;5912;51.034;6.984;2023-06-22T09:12:25;55519.09;;;-142.13;29.00
11712;BME280;5912;51.034;6.984;2023-06-22T09:14:52;55527.09;;;-142.13;28.75
11712;BME280;5912;51.034;6.984;2023-06-22T09:17:18;55539.09;;;-142.13;29.22
11712;BME280;5912;51.034;6.984;2023-06-22T09:19:43;55569.16;;;-142.13;29.97
11712;BME280;5912;51.034;6.984;2023-06-22T09:22:08;55575.16;;;-142.13;30.17
11712;BME280;5912;51.034;6.984;2023-06-22T09:24:34;55595.19;;;-142.13;30.63
11712;BME280;5912;51.034;6.984;2023-06-22T09:26:59;55565.16;;;-142.13;30.82
11712;BME280;5912;51.034;6.984;2023-06-22T09:29:25;55597.19;;;-142.13;30.71
11712;BME280;5912;51.034;6.984;2023-06-22T09:31:50;55587.19;;;-142.13;30.00
11712;BME280;5912;51.034;6.984;2023-06-22T09:34:16;55567.16;;;-142.13;29.54
11712;BME280;5912;51.034;6.984;2023-06-22T09:36:46;55571.16;;;-142.13;29.23
11712;BME280;5912;51.034;6.984;2023-06-22T09:39:11;55573.16;;;-142.13;29.73
11712;BME280;5912;51.034;6.984;2023-06-22T09:41:36;55583.16;;;-142.13;29.84
11712;BME280;5912;51.034;6.984;2023-06-22T09:44:02;55603.19;;;-142.13;30.20
11712;BME280;5912;51.034;6.984;2023-06-22T09:46:27;55629.22;;;-142.13;30.56
11712;BME280;5912;51.034;6.984;2023-06-22T09:48:53;55643.25;;;-142.13;31.26
11712;BME280;5912;51.034;6.984;2023-06-22T09:51:18;55633.25;;;-142.13;31.31
11712;BME280;5912;51.034;6.984;2023-06-22T09:53:46;55623.22;;;-142.13;31.07
11712;BME280;5912;51.034;6.984;2023-06-22T09:56:11;55615.22;;;-142.13;30.47
11712;BME280;5912;51.034;6.984;2023-06-22T09:58:44;55609.22;;;-142.13;30.15
11712;BME280;5912;51.034;6.984;2023-06-22T10:01:11;55619.22;;;-142.13;30.45
11712;BME280;5912;51.034;6.984;2023-06-22T10:03:37;55627.22;;;-142.13;30.90
11712;BME280;5912;51.034;6.984;2023-06-22T10:06:02;55625.22;;;-142.13;30.95
11712;BME280;5912;51.034;6.984;2023-06-22T10:08:28;55635.25;;;-142.13;31.05
11712;BME280;5912;51.034;6.984;2023-06-22T10:10:53;55665.28;;;-142.13;31.66
11712;BME280;5912;51.034;6.984;2023-06-22T10:13:18;55675.31;;;-142.13;32.34
11712;BME280;5912;51.034;6.984;2023-06-22T10:15:44;55687.31;;;-142.13;33.12
11712;BME280;5912;51.034;6.984;2023-06-22T10:18:15;55741.41;;;-142.13;34.01
11712;BME280;5912;51.034;6.984;2023-06-22T10:20:41;55747.41;;;-142.13;34.33
11712;BME280;5912;51.034;6.984;2023-06-22T10:23:06;55767.44;;;-142.13;35.21
11712;BME280;5912;51.034;6.984;2023-06-22T10:25:31;55807.50;;;-142.13;36.08
11712;BME280;5912;51.034;6.984;2023-06-22T10:27:57;55803.47;;;-142.13;37.79
11712;BME280;5912;51.034;6.984;2023-06-22T10:30:22;55827.53;;;-142.13;39.03
11712;BME280;5912;51.034;6.984;2023-06-22T10:32:48;55835.53;;;-142.13;39.99
11712;BME280;5912;51.034;6.984;2023-06-22T10:35:14;55861.56;;;-142.13;41.98
11712;BME280;5912;51.034;6.984;2023-06-22T10:37:42;55839.53;;;-142.13;43.66
11712;BME280;5912;51.034;6.984;2023-06-22T10:40:08;55855.56;;;-142.13;45.67
11712;BME280;5912;51.034;6.984;2023-06-22T10:42:34;55859.56;;;-142.13;45.97
11712;BME280;5912;51.034;6.984;2023-06-22T10:44:59;55863.56;;;-142.13;47.45
11712;BME280;5912;51.034;6.984;2023-06-22T10:47:24;55883.59;;;-142.13;50.03
11712;BME280;5912;51.034;6.984;2023-06-22T10:49:50;55859.56;;;-142.13;51.90
11712;BME280;5912;51.034;6.984;2023-06-22T10:52:15;55911.66;;;-142.13;53.51
11712;BME280;5912;51.034;6.984;2023-06-22T10:54:41;55907.63;;;-142.13;54.43
11712;BME280;5912;51.034;6.984;2023-06-22T10:57:06;55913.66;;;-142.13;56.07
11712;BME280;5912;51.034;6.984;2023-06-22T10:59:31;55945.69;;;-142.13;57.81
11712;BME280;5912;51.034;6.984;2023-06-22T11:01:57;55937.69;;;-142.13;59.67
11712;BME280;5912;51.034;6.984;2023-06-22T11:04:23;55939.69;;;-142.13;61.20
11712;BME280;5912;51.034;6.984;2023-06-22T11:06:49;55943.69;;;-142.13;62.09
11712;BME280;5912;51.034;6.984;2023-06-22T11:09:14;55937.69;;;-142.13;62.31
11712;BME280;5912;51.034;6.984;2023-06-22T11:11:44;55983.75;;;-142.13;62.90
11712;BME280;5912;51.034;6.984;2023-06-22T11:14:10;55987.75;;;-142.13;63.63
11712;BME280;5912;51.034;6.984;2023-06-22T11:16:35;55959.72;;;-142.13;63.72
11712;BME280;5912;51.034;6.984;2023-06-22T11:19:00;55971.72;;;-142.13;64.29
11712;BME280;5912;51.034;6.984;2023-06-22T11:21:26;55977.75;;;-142.13;65.11
11712;BME280;5912;51.034;6.984;2023-06-22T11:23:51;55985.75;;;-142.13;65.10
11712;BME280;5912;51.034;6.984;2023-06-22T11:26:16;55975.75;;;-142.13;65.88
11712;BME280;5912;51.034;6.984;2023-06-22T11:28:41;55999.78;;;-142.13;66.41
11712;BME280;5912;51.034;6.984;2023-06-22T11:31:07;56003.78;;;-142.13;66.83
11712;BME280;5912;51.034;6.984;2023-06-22T11:33:32;55977.75;;;-142.13;66.56
11712;BME280;5912;51.034;6.984;2023-06-22T11:35:58;55987.75;;;-142.13;66.52
11712;BME280;5912;51.034;6.984;2023-06-22T11:38:23;55953.72;;;-142.13;65.82
11712;BME280;5912;51.034;6.984;2023-06-22T11:40:48;55971.72;;;-142.13;65.58
11712;BME280;5912;51.034;6.984;2023-06-22T11:43:14;55927.66;;;-142.13;64.95
11712;BME280;5912;51.034;6.984;2023-06-22T11:45:40;55911.66;;;-142.13;64.24
11712;BME280;5912;51.034;6.984;2023-06-22T11:48:05;55915.66;;;-142.13;63.12
11712;BME280;5912;51.034;6.984;2023-06-22T11:50:30;55937.69;;;-142.13;62.41
11712;BME280;5912;51.034;6.984;2023-06-22T11:53:00;55925.66;;;-142.13;61.46
11712;BME280;5912;51.034;6.984;2023-06-22T11:55:26;55933.69;;;-142.13;62.81
11712;BME280;5912;51.034;6.984;2023-06-22T11:57:54;55943.69;;;-142.13;63.17
11712;BME280;5912;51.034;6.984;2023-06-22T12:00:20;55967.72;;;-142.13;63.69
11712;BME280;5912;51.034;6.984;2023-06-22T12:02:48;55967.72;;;-142.13;63.63
11712;BME280;5912;51.034;6.984;2023-06-22T12:05:13;55955.72;;;-142.13;64.54
11712;BME280;5912;51.034;6.984;2023-06-22T12:07:38;55963.72;;;-142.13;65.28
11712;BME280;5912;51.034;6.984;2023-06-22T12:10:04;55923.66;;;-142.13;65.29
11712;BME280;5912;51.034;6.984;2023-06-22T12:12:30;55931.66;;;-142.13;64.69
11712;BME280;5912;51.034;6.984;2023-06-22T12:14:55;55899.63;;;-142.13;64.06
11712;BME280;5912;51.034;6.984;2023-06-22T12:17:20;55887.59;;;-142.13;60.82
11712;BME280;5912;51.034;6.984;2023-06-22T12:19:45;55871.59;;;-142.13;59.93
11712;BME280;5912;51.034;6.984;2023-06-22T12:22:11;55853.56;;;-142.13;57.00
11712;BME280;5912;51.034;6.984;2023-06-22T12:24:36;55831.53;;;-142.13;53.25
11712;BME280;5912;51.034;6.984;2023-06-22T12:27:02;55829.53;;;-142.13;52.59
11712;BME280;5912;51.034;6.984;2023-06-22T12:29:28;55839.53;;;-142.13;52.82
11712;BME280;5912;51.034;6.984;2023-06-22T12:31:53;55861.56;;;-142.13;53.70
11712;BME280;5912;51.034;6.984;2023-06-22T12:34:19;55867.56;;;-142.13;56.03
11712;BME280;5912;51.034;6.984;2023-06-22T12:36:44;55869.59;;;-142.13;56.46
11712;BME280;5912;51.034;6.984;2023-06-22T12:39:09;55869.59;;;-142.13;56.84
11712;BME280;5912;51.034;6.984;2023-06-22T12:41:35;55855.56;;;-142.13;56.99
11712;BME280;5912;51.034;6.984;2023-06-22T12:44:00;55811.50;;;-142.13;55.42
11712;BME280;5912;51.034;6.984;2023-06-22T12:46:25;55771.44;;;-142.13;51.49
11712;BME280;5912;51.034;6.984;2023-06-22T12:48:50;55743.41;;;-142.13;48.59
11712;BME280;5912;51.034;6.984;2023-06-22T12:51:22;55725.38;;;-142.13;44.77